sensor_id;sensor_type;location;lat;lon;timestamp;P1;durP1;ratioP1;P2;durP2;ratioP2
9422;SDS011;65863;49.506;10.400;2023-01-01T00:00:21;7.83;;;6.27;;
9422;SDS011;65863;49.506;10.400;2023-01-01T00:03:06;6.77;;;4.83;;
9422;SDS011;65863;49.506;10.400;2023-01-01T00:05:50;6.43;;;5.13;;
9422;SDS011;65863;49.506;10.400;2023-01-01T00:08:35;7.10;;;4.87;;
9422;SDS011;65863;49.506;10.400;2023-01-01T00:11:19;7.37;;;4.83;;
9422;SDS011;65863;49.506;10.400;2023-01-01T00:14:03;6.97;;;5.43;;
9422;SDS011;65863;49.506;10.400;2023-01-01T00:16:47;5.30;;;4.50;;
9422;SDS011;65863;49.506;10.400;2023-01-01T00:19:31;7.93;;;5.63;;
9422;SDS011;65863;49.506;10.400;2023-01-01T00:22:16;6.60;;;5.90;;
9422;SDS011;65863;49.506;10.400;2023-01-01T00:25:00;6.73;;;5.87;;
9422;SDS011;65863;49.506;10.400;2023-01-01T00:27:44;6.63;;;5.60;;
9422;SDS011;65863;49.506;10.400;2023-01-01T00:30:28;6.07;;;5.47;;
9422;SDS011;65863;49.506;10.400;2023-01-01T00:33:13;8.30;;;6.30;;
9422;SDS011;65863;49.506;10.400;2023-01-01T00:35:57;9.23;;;7.93;;
9422;SDS011;65863;49.506;10.400;2023-01-01T00:38:51;7.07;;;5.67;;
9422;SDS011;65863;49.506;10.400;2023-01-01T00:41:36;7.80;;;6.63;;
9422;SDS011;65863;49.506;10.400;2023-01-01T00:44:20;7.07;;;6.33;;
9422;SDS011;65863;49.506;10.400;2023-01-01T00:47:04;8.57;;;5.90;;
9422;SDS011;65863;49.506;10.400;2023-01-01T00:49:48;8.00;;;6.23;;
9422;SDS011;65863;49.506;10.400;2023-01-01T00:52:32;8.10;;;6.53;;
9422;SDS011;65863;49.506;10.400;2023-01-01T00:55:16;9.43;;;6.50;;
9422;SDS011;65863;49.506;10.400;2023-01-01T00:58:00;9.70;;;6.73;;
9422;SDS011;65863;49.506;10.400;2023-01-01T01:00:44;9.90;;;6.80;;
9422;SDS011;65863;49.506;10.400;2023-01-01T01:03:28;9.80;;;7.33;;
9422;SDS011;65863;49.506;10.400;2023-01-01T01:06:16;10.07;;;7.07;;
9422;SDS011;65863;49.506;10.400;2023-01-01T01:09:01;9.37;;;7.47;;
9422;SDS011;65863;49.506;10.400;2023-01-01T01:11:45;10.07;;;7.47;;
9422;SDS011;65863;49.506;10.400;2023-01-01T01:14:29;10.47;;;8.37;;
9422;SDS011;65863;49.506;10.400;2023-01-01T01:17:13;9.70;;;7.00;;
9422;SDS011;65863;49.506;10.400;2023-01-01T01:19:57;7.93;;;6.43;;
9422;SDS011;65863;49.506;10.400;2023-01-01T01:22:41;8.53;;;6.63;;
9422;SDS011;65863;49.506;10.400;2023-01-01T01:25:25;9.60;;;7.33;;
9422;SDS011;65863;49.506;10.400;2023-01-01T01:28:10;9.00;;;7.60;;
9422;SDS011;65863;49.506;10.400;2023-01-01T01:30:53;9.63;;;6.90;;
9422;SDS011;65863;49.506;10.400;2023-01-01T01:33:43;7.80;;;6.70;;
9422;SDS011;65863;49.506;10.400;2023-01-01T01:36:28;9.73;;;6.60;;
9422;SDS011;65863;49.506;10.400;2023-01-01T01:39:12;8.17;;;6.03;;
9422;SDS011;65863;49.506;10.400;2023-01-01T01:41:56;9.93;;;5.73;;
9422;SDS011;65863;49.506;10.400;2023-01-01T01:53:20;8.40;;;5.50;;
9422;SDS011;65863;49.506;10.400;2023-01-01T01:56:08;6.87;;;5.37;;
9422;SDS011;65863;49.506;10.400;2023-01-01T01:58:55;7.20;;;5.47;;
9422;SDS011;65863;49.506;10.400;2023-01-01T02:01:40;6.97;;;5.07;;
9422;SDS011;65863;49.506;10.400;2023-01-01T02:04:24;7.37;;;4.73;;
9422;SDS011;65863;49.506;10.400;2023-01-01T02:07:09;5.43;;;4.67;;
9422;SDS011;65863;49.506;10.400;2023-01-01T02:09:56;8.40;;;5.40;;
9422;SDS011;65863;49.506;10.400;2023-01-01T02:12:40;5.27;;;4.50;;
9422;SDS011;65863;49.506;10.400;2023-01-01T02:15:27;4.77;;;4.27;;
9422;SDS011;65863;49.506;10.400;2023-01-01T02:18:15;6.17;;;4.30;;
9422;SDS011;65863;49.506;10.400;2023-01-01T02:21:09;6.73;;;4.83;;
9422;SDS011;65863;49.506;10.400;2023-01-01T02:24:14;4.93;;;4.33;;
9422;SDS011;65863;49.506;10.400;2023-01-01T02:27:02;7.03;;;4.87;;
9422;SDS011;65863;49.506;10.400;2023-01-01T02:29:50;16.10;;;8.40;;
9422;SDS011;65863;49.506;10.400;2023-01-01T02:32:48;7.43;;;5.40;;
9422;SDS011;65863;49.506;10.400;2023-01-01T02:35:37;7.30;;;5.00;;
9422;SDS011;65863;49.506;10.400;2023-01-01T02:38:32;7.80;;;5.50;;
9422;SDS011;65863;49.506;10.400;2023-01-01T02:41:21;7.23;;;5.30;;
9422;SDS011;65863;49.506;10.400;2023-01-01T02:44:09;5.77;;;4.60;;
9422;SDS011;65863;49.506;10.400;2023-01-01T02:46:54;5.80;;;4.77;;
9422;SDS011;65863;49.506;10.400;2023-01-01T02:49:40;5.20;;;4.47;;
9422;SDS011;65863;49.506;10.400;2023-01-01T02:52:38;8.33;;;5.17;;
9422;SDS011;65863;49.506;10.400;2023-01-01T02:58:35;7.33;;;5.77;;
9422;SDS011;65863;49.506;10.400;2023-01-01T03:01:51;6.70;;;5.50;;
9422;SDS011;65863;49.506;10.400;2023-01-01T03:07:56;8.17;;;5.60;;
9422;SDS011;65863;49.506;10.400;2023-01-01T03:10:53;6.33;;;5.37;;
9422;SDS011;65863;49.506;10.400;2023-01-01T03:16:46;10.73;;;5.70;;
9422;SDS011;65863;49.506;10.400;2023-01-01T03:19:39;6.47;;;5.20;;
9422;SDS011;65863;49.506;10.400;2023-01-01T03:22:27;7.30;;;5.30;;
9422;SDS011;65863;49.506;10.400;2023-01-01T03:25:15;7.27;;;5.27;;
9422;SDS011;65863;49.506;10.400;2023-01-01T03:28:15;7.43;;;5.00;;
9422;SDS011;65863;49.506;10.400;2023-01-01T03:31:02;5.63;;;4.53;;
9422;SDS011;65863;49.506;10.400;2023-01-01T03:33:50;4.87;;;4.13;;
9422;SDS011;65863;49.506;10.400;2023-01-01T03:36:41;6.37;;;4.67;;
9422;SDS011;65863;49.506;10.400;2023-01-01T03:39:37;4.73;;;4.23;;
9422;SDS011;65863;49.506;10.400;2023-01-01T03:42:31;7.37;;;4.27;;
9422;SDS011;65863;49.506;10.400;2023-01-01T03:45:21;5.17;;;4.13;;
9422;SDS011;65863;49.506;10.400;2023-01-01T03:48:09;5.70;;;4.30;;
9422;SDS011;65863;49.506;10.400;2023-01-01T03:50:57;5.80;;;4.50;;
9422;SDS011;65863;49.506;10.400;2023-01-01T03:54:19;5.67;;;4.30;;
9422;SDS011;65863;49.506;10.400;2023-01-01T04:00:13;5.33;;;4.20;;
9422;SDS011;65863;49.506;10.400;2023-01-01T04:03:06;7.43;;;4.13;;
9422;SDS011;65863;49.506;10.400;2023-01-01T04:05:57;5.00;;;4.10;;
9422;SDS011;65863;49.506;10.400;2023-01-01T04:08:41;4.40;;;4.00;;
9422;SDS011;65863;49.506;10.400;2023-01-01T04:11:27;6.13;;;4.03;;
9422;SDS011;65863;49.506;10.400;2023-01-01T04:14:37;5.50;;;3.83;;
9422;SDS011;65863;49.506;10.400;2023-01-01T04:17:23;5.30;;;4.07;;
9422;SDS011;65863;49.506;10.400;2023-01-01T04:20:08;4.90;;;3.97;;
9422;SDS011;65863;49.506;10.400;2023-01-01T04:22:56;6.30;;;4.37;;
9422;SDS011;65863;49.506;10.400;2023-01-01T04:25:43;4.60;;;3.47;;
9422;SDS011;65863;49.506;10.400;2023-01-01T04:28:27;4.80;;;3.40;;
9422;SDS011;65863;49.506;10.400;2023-01-01T04:31:12;4.73;;;3.63;;
9422;SDS011;65863;49.506;10.400;2023-01-01T04:33:56;4.37;;;3.40;;
9422;SDS011;65863;49.506;10.400;2023-01-01T04:36:40;6.00;;;3.60;;
9422;SDS011;65863;49.506;10.400;2023-01-01T04:39:24;4.53;;;3.43;;
9422;SDS011;65863;49.506;10.400;2023-01-01T04:42:08;4.10;;;3.40;;
9422;SDS011;65863;49.506;10.400;2023-01-01T04:44:52;4.73;;;3.70;;
9422;SDS011;65863;49.506;10.400;2023-01-01T04:47:36;4.93;;;3.20;;
9422;SDS011;65863;49.506;10.400;2023-01-01T04:50:20;4.47;;;3.17;;
9422;SDS011;65863;49.506;10.400;2023-01-01T04:53:04;6.27;;;3.27;;
9422;SDS011;65863;49.506;10.400;2023-01-01T04:55:48;4.67;;;3.63;;
9422;SDS011;65863;49.506;10.400;2023-01-01T04:58:32;4.50;;;3.20;;
9422;SDS011;65863;49.506;10.400;2023-01-01T05:01:21;6.33;;;3.40;;
9422;SDS011;65863;49.506;10.400;2023-01-01T05:04:08;4.97;;;3.50;;
9422;SDS011;65863;49.506;10.400;2023-01-01T05:06:56;4.80;;;3.23;;
9422;SDS011;65863;49.506;10.400;2023-01-01T05:09:40;5.53;;;3.23;;
9422;SDS011;65863;49.506;10.400;2023-01-01T05:12:23;5.50;;;3.10;;
9422;SDS011;65863;49.506;10.400;2023-01-01T05:15:08;4.60;;;3.40;;
9422;SDS011;65863;49.506;10.400;2023-01-01T05:17:52;4.37;;;3.43;;
9422;SDS011;65863;49.506;10.400;2023-01-01T05:20:37;4.50;;;3.47;;
9422;SDS011;65863;49.506;10.400;2023-01-01T05:23:21;4.67;;;3.60;;
9422;SDS011;65863;49.506;10.400;2023-01-01T05:26:09;4.90;;;3.20;;
9422;SDS011;65863;49.506;10.400;2023-01-01T05:28:53;5.83;;;3.30;;
9422;SDS011;65863;49.506;10.400;2023-01-01T05:31:39;4.53;;;3.27;;
9422;SDS011;65863;49.506;10.400;2023-01-01T05:34:23;4.17;;;3.00;;
9422;SDS011;65863;49.506;10.400;2023-01-01T05:37:08;4.73;;;3.33;;
9422;SDS011;65863;49.506;10.400;2023-01-01T05:39:52;6.27;;;3.23;;
9422;SDS011;65863;49.506;10.400;2023-01-01T05:42:36;5.23;;;3.13;;
9422;SDS011;65863;49.506;10.400;2023-01-01T05:45:20;5.33;;;3.90;;
9422;SDS011;65863;49.506;10.400;2023-01-01T05:48:04;5.93;;;3.37;;
9422;SDS011;65863;49.506;10.400;2023-01-01T05:50:49;4.53;;;3.00;;
9422;SDS011;65863;49.506;10.400;2023-01-01T05:53:33;3.60;;;3.10;;
9422;SDS011;65863;49.506;10.400;2023-01-01T05:56:18;3.50;;;2.83;;
9422;SDS011;65863;49.506;10.400;2023-01-01T05:59:02;4.53;;;3.23;;
9422;SDS011;65863;49.506;10.400;2023-01-01T06:01:47;3.30;;;2.90;;
9422;SDS011;65863;49.506;10.400;2023-01-01T06:04:31;4.40;;;3.10;;
9422;SDS011;65863;49.506;10.400;2023-01-01T06:07:15;6.40;;;3.10;;
9422;SDS011;65863;49.506;10.400;2023-01-01T06:09:59;4.83;;;2.70;;
9422;SDS011;65863;49.506;10.400;2023-01-01T06:12:42;3.27;;;2.50;;
9422;SDS011;65863;49.506;10.400;2023-01-01T06:15:27;5.03;;;2.87;;
9422;SDS011;65863;49.506;10.400;2023-01-01T06:18:11;5.20;;;2.70;;
9422;SDS011;65863;49.506;10.400;2023-01-01T06:20:55;2.93;;;2.50;;
9422;SDS011;65863;49.506;10.400;2023-01-01T06:23:46;2.97;;;2.57;;
9422;SDS011;65863;49.506;10.400;2023-01-01T06:26:31;4.63;;;2.67;;
9422;SDS011;65863;49.506;10.400;2023-01-01T06:29:17;3.20;;;2.20;;
9422;SDS011;65863;49.506;10.400;2023-01-01T06:32:01;2.27;;;1.90;;
9422;SDS011;65863;49.506;10.400;2023-01-01T06:34:45;5.27;;;2.20;;
9422;SDS011;65863;49.506;10.400;2023-01-01T06:37:29;3.57;;;2.50;;
9422;SDS011;65863;49.506;10.400;2023-01-01T06:40:13;2.83;;;2.20;;
9422;SDS011;65863;49.506;10.400;2023-01-01T06:42:57;4.40;;;2.47;;
9422;SDS011;65863;49.506;10.400;2023-01-01T06:45:41;2.23;;;2.03;;
9422;SDS011;65863;49.506;10.400;2023-01-01T06:48:26;3.53;;;2.10;;
9422;SDS011;65863;49.506;10.400;2023-01-01T06:51:12;2.73;;;2.10;;
9422;SDS011;65863;49.506;10.400;2023-01-01T06:54:02;2.97;;;2.20;;
9422;SDS011;65863;49.506;10.400;2023-01-01T06:56:47;2.53;;;2.07;;
9422;SDS011;65863;49.506;10.400;2023-01-01T06:59:32;4.00;;;2.60;;
9422;SDS011;65863;49.506;10.400;2023-01-01T07:02:16;3.40;;;2.30;;
9422;SDS011;65863;49.506;10.400;2023-01-01T07:05:00;2.63;;;2.10;;
9422;SDS011;65863;49.506;10.400;2023-01-01T07:07:44;4.47;;;2.57;;
9422;SDS011;65863;49.506;10.400;2023-01-01T07:10:30;4.57;;;2.33;;
9422;SDS011;65863;49.506;10.400;2023-01-01T07:13:14;2.97;;;2.40;;
9422;SDS011;65863;49.506;10.400;2023-01-01T07:15:58;3.70;;;2.87;;
9422;SDS011;65863;49.506;10.400;2023-01-01T07:18:43;5.43;;;2.57;;
9422;SDS011;65863;49.506;10.400;2023-01-01T07:24:14;2.53;;;2.13;;
9422;SDS011;65863;49.506;10.400;2023-01-01T07:26:59;3.30;;;2.40;;
9422;SDS011;65863;49.506;10.400;2023-01-01T07:29:43;2.60;;;2.10;;
9422;SDS011;65863;49.506;10.400;2023-01-01T07:32:27;6.80;;;2.50;;
9422;SDS011;65863;49.506;10.400;2023-01-01T07:35:11;6.20;;;2.40;;
9422;SDS011;65863;49.506;10.400;2023-01-01T07:37:58;4.07;;;2.50;;
9422;SDS011;65863;49.506;10.400;2023-01-01T07:40:42;4.17;;;2.50;;
9422;SDS011;65863;49.506;10.400;2023-01-01T07:46:15;3.93;;;2.90;;
9422;SDS011;65863;49.506;10.400;2023-01-01T07:49:01;3.03;;;2.40;;
9422;SDS011;65863;49.506;10.400;2023-01-01T07:51:46;5.23;;;2.03;;
9422;SDS011;65863;49.506;10.400;2023-01-01T07:54:30;3.17;;;2.20;;
9422;SDS011;65863;49.506;10.400;2023-01-01T07:57:14;4.83;;;2.10;;
9422;SDS011;65863;49.506;10.400;2023-01-01T07:59:58;3.97;;;2.27;;
9422;SDS011;65863;49.506;10.400;2023-01-01T08:02:42;2.80;;;1.93;;
9422;SDS011;65863;49.506;10.400;2023-01-01T08:05:26;2.10;;;1.90;;
9422;SDS011;65863;49.506;10.400;2023-01-01T08:08:10;5.27;;;2.20;;
9422;SDS011;65863;49.506;10.400;2023-01-01T08:10:58;4.40;;;1.97;;
9422;SDS011;65863;49.506;10.400;2023-01-01T08:13:43;3.93;;;2.20;;
9422;SDS011;65863;49.506;10.400;2023-01-01T08:16:27;1.77;;;1.67;;
9422;SDS011;65863;49.506;10.400;2023-01-01T08:19:11;5.60;;;2.07;;
9422;SDS011;65863;49.506;10.400;2023-01-01T08:21:55;6.40;;;2.20;;
9422;SDS011;65863;49.506;10.400;2023-01-01T08:24:39;1.83;;;1.70;;
9422;SDS011;65863;49.506;10.400;2023-01-01T08:27:23;3.87;;;2.10;;
9422;SDS011;65863;49.506;10.400;2023-01-01T08:30:20;2.53;;;1.90;;
9422;SDS011;65863;49.506;10.400;2023-01-01T08:33:04;4.17;;;1.90;;
9422;SDS011;65863;49.506;10.400;2023-01-01T08:35:48;2.27;;;2.00;;
9422;SDS011;65863;49.506;10.400;2023-01-01T08:38:32;2.73;;;1.90;;
9422;SDS011;65863;49.506;10.400;2023-01-01T08:41:17;3.60;;;1.67;;
9422;SDS011;65863;49.506;10.400;2023-01-01T08:44:01;4.20;;;1.80;;
9422;SDS011;65863;49.506;10.400;2023-01-01T08:46:45;1.80;;;1.70;;
9422;SDS011;65863;49.506;10.400;2023-01-01T08:49:29;3.73;;;2.23;;
9422;SDS011;65863;49.506;10.400;2023-01-01T08:52:14;3.50;;;2.07;;
9422;SDS011;65863;49.506;10.400;2023-01-01T08:54:58;4.70;;;1.83;;
9422;SDS011;65863;49.506;10.400;2023-01-01T08:57:43;1.90;;;1.67;;
9422;SDS011;65863;49.506;10.400;2023-01-01T09:00:27;3.00;;;1.70;;
9422;SDS011;65863;49.506;10.400;2023-01-01T09:03:11;2.20;;;2.00;;
9422;SDS011;65863;49.506;10.400;2023-01-01T09:05:55;2.90;;;1.57;;
9422;SDS011;65863;49.506;10.400;2023-01-01T09:08:39;2.67;;;1.90;;
9422;SDS011;65863;49.506;10.400;2023-01-01T09:11:24;4.27;;;1.90;;
9422;SDS011;65863;49.506;10.400;2023-01-01T09:14:09;3.43;;;1.67;;
9422;SDS011;65863;49.506;10.400;2023-01-01T09:16:53;2.97;;;2.00;;
9422;SDS011;65863;49.506;10.400;2023-01-01T09:19:37;3.17;;;1.77;;
9422;SDS011;65863;49.506;10.400;2023-01-01T09:22:22;4.50;;;1.80;;
9422;SDS011;65863;49.506;10.400;2023-01-01T09:25:06;4.30;;;2.20;;
9422;SDS011;65863;49.506;10.400;2023-01-01T09:28:00;2.70;;;1.47;;
9422;SDS011;65863;49.506;10.400;2023-01-01T09:30:46;3.60;;;1.90;;
9422;SDS011;65863;49.506;10.400;2023-01-01T09:33:30;5.27;;;1.87;;
9422;SDS011;65863;49.506;10.400;2023-01-01T09:39:02;2.63;;;2.10;;
9422;SDS011;65863;49.506;10.400;2023-01-01T09:47:48;2.97;;;2.00;;
9422;SDS011;65863;49.506;10.400;2023-01-01T09:50:37;2.60;;;1.97;;
9422;SDS011;65863;49.506;10.400;2023-01-01T09:56:33;4.33;;;2.07;;
9422;SDS011;65863;49.506;10.400;2023-01-01T09:59:19;3.30;;;1.80;;
9422;SDS011;65863;49.506;10.400;2023-01-01T10:08:45;4.17;;;1.90;;
9422;SDS011;65863;49.506;10.400;2023-01-01T10:12:00;3.87;;;2.00;;
9422;SDS011;65863;49.506;10.400;2023-01-01T10:14:55;3.90;;;1.97;;
9422;SDS011;65863;49.506;10.400;2023-01-01T10:17:54;5.53;;;2.10;;
9422;SDS011;65863;49.506;10.400;2023-01-01T10:20:43;5.83;;;1.97;;
9422;SDS011;65863;49.506;10.400;2023-01-01T10:23:41;2.30;;;1.50;;
9422;SDS011;65863;49.506;10.400;2023-01-01T10:26:28;3.53;;;1.70;;
9422;SDS011;65863;49.506;10.400;2023-01-01T10:29:15;4.73;;;1.80;;
9422;SDS011;65863;49.506;10.400;2023-01-01T10:35:12;4.53;;;1.97;;
9422;SDS011;65863;49.506;10.400;2023-01-01T10:37:59;2.93;;;1.80;;
9422;SDS011;65863;49.506;10.400;2023-01-01T10:40:45;4.90;;;1.97;;
9422;SDS011;65863;49.506;10.400;2023-01-01T10:43:29;4.20;;;1.83;;
9422;SDS011;65863;49.506;10.400;2023-01-01T10:46:14;3.50;;;1.70;;
9422;SDS011;65863;49.506;10.400;2023-01-01T10:51:54;2.60;;;1.80;;
9422;SDS011;65863;49.506;10.400;2023-01-01T10:54:38;3.90;;;1.77;;
9422;SDS011;65863;49.506;10.400;2023-01-01T11:00:24;4.20;;;2.10;;
9422;SDS011;65863;49.506;10.400;2023-01-01T11:03:19;4.03;;;1.70;;
9422;SDS011;65863;49.506;10.400;2023-01-01T11:08:55;5.13;;;1.93;;
9422;SDS011;65863;49.506;10.400;2023-01-01T11:11:46;2.83;;;1.70;;
9422;SDS011;65863;49.506;10.400;2023-01-01T11:14:38;3.40;;;1.90;;
9422;SDS011;65863;49.506;10.400;2023-01-01T11:17:26;2.87;;;1.77;;
9422;SDS011;65863;49.506;10.400;2023-01-01T11:20:18;5.70;;;2.20;;
9422;SDS011;65863;49.506;10.400;2023-01-01T11:23:17;3.53;;;1.77;;
9422;SDS011;65863;49.506;10.400;2023-01-01T11:29:00;2.50;;;1.90;;
9422;SDS011;65863;49.506;10.400;2023-01-01T11:31:48;5.67;;;2.03;;
9422;SDS011;65863;49.506;10.400;2023-01-01T11:34:33;4.90;;;2.17;;
9422;SDS011;65863;49.506;10.400;2023-01-01T11:37:44;3.13;;;1.80;;
9422;SDS011;65863;49.506;10.400;2023-01-01T11:40:32;3.93;;;1.80;;
9422;SDS011;65863;49.506;10.400;2023-01-01T11:43:21;4.03;;;1.87;;
9422;SDS011;65863;49.506;10.400;2023-01-01T11:46:08;3.97;;;2.03;;
9422;SDS011;65863;49.506;10.400;2023-01-01T11:48:56;5.57;;;1.70;;
9422;SDS011;65863;49.506;10.400;2023-01-01T11:51:40;5.73;;;2.13;;
9422;SDS011;65863;49.506;10.400;2023-01-01T11:54:32;3.80;;;2.20;;
9422;SDS011;65863;49.506;10.400;2023-01-01T11:57:21;8.33;;;2.10;;
9422;SDS011;65863;49.506;10.400;2023-01-01T12:00:11;2.93;;;1.97;;
9422;SDS011;65863;49.506;10.400;2023-01-01T12:06:07;3.20;;;1.87;;
9422;SDS011;65863;49.506;10.400;2023-01-01T12:15:00;3.30;;;1.87;;
9422;SDS011;65863;49.506;10.400;2023-01-01T12:17:57;6.27;;;2.50;;
9422;SDS011;65863;49.506;10.400;2023-01-01T12:24:10;7.50;;;1.93;;
9422;SDS011;65863;49.506;10.400;2023-01-01T12:27:08;5.80;;;1.87;;
9422;SDS011;65863;49.506;10.400;2023-01-01T12:32:51;5.47;;;1.97;;
9422;SDS011;65863;49.506;10.400;2023-01-01T12:36:14;3.63;;;1.80;;
9422;SDS011;65863;49.506;10.400;2023-01-01T12:39:24;3.70;;;1.60;;
9422;SDS011;65863;49.506;10.400;2023-01-01T12:48:46;5.13;;;1.70;;
9422;SDS011;65863;49.506;10.400;2023-01-01T12:51:41;2.73;;;1.50;;
9422;SDS011;65863;49.506;10.400;2023-01-01T12:54:37;4.23;;;1.77;;
9422;SDS011;65863;49.506;10.400;2023-01-01T13:00:28;4.30;;;2.00;;
9422;SDS011;65863;49.506;10.400;2023-01-01T13:03:18;3.20;;;1.90;;
9422;SDS011;65863;49.506;10.400;2023-01-01T13:06:06;4.83;;;1.93;;
9422;SDS011;65863;49.506;10.400;2023-01-01T13:08:55;3.57;;;2.10;;
9422;SDS011;65863;49.506;10.400;2023-01-01T13:11:49;4.83;;;1.90;;
9422;SDS011;65863;49.506;10.400;2023-01-01T13:14:41;2.77;;;2.10;;
9422;SDS011;65863;49.506;10.400;2023-01-01T13:17:27;6.60;;;2.77;;
9422;SDS011;65863;49.506;10.400;2023-01-01T13:22:56;6.23;;;2.20;;
9422;SDS011;65863;49.506;10.400;2023-01-01T13:25:40;4.10;;;1.90;;
9422;SDS011;65863;49.506;10.400;2023-01-01T13:28:24;4.73;;;2.00;;
9422;SDS011;65863;49.506;10.400;2023-01-01T13:31:08;3.43;;;1.80;;
9422;SDS011;65863;49.506;10.400;2023-01-01T13:40:02;6.17;;;1.93;;
9422;SDS011;65863;49.506;10.400;2023-01-01T13:43:15;4.10;;;2.03;;
9422;SDS011;65863;49.506;10.400;2023-01-01T13:46:02;4.13;;;2.03;;
9422;SDS011;65863;49.506;10.400;2023-01-01T13:52:04;3.30;;;1.70;;
9422;SDS011;65863;49.506;10.400;2023-01-01T14:05:24;4.07;;;2.20;;
9422;SDS011;65863;49.506;10.400;2023-01-01T14:08:28;8.07;;;2.07;;
9422;SDS011;65863;49.506;10.400;2023-01-01T14:11:17;4.23;;;2.10;;
9422;SDS011;65863;49.506;10.400;2023-01-01T14:14:25;6.77;;;2.23;;
9422;SDS011;65863;49.506;10.400;2023-01-01T14:17:16;6.77;;;2.70;;
9422;SDS011;65863;49.506;10.400;2023-01-01T14:20:03;3.37;;;2.30;;
9422;SDS011;65863;49.506;10.400;2023-01-01T14:22:49;7.93;;;2.43;;
9422;SDS011;65863;49.506;10.400;2023-01-01T14:25:36;4.40;;;2.43;;
9422;SDS011;65863;49.506;10.400;2023-01-01T14:28:26;3.93;;;2.67;;
9422;SDS011;65863;49.506;10.400;2023-01-01T14:37:23;4.87;;;2.30;;
9422;SDS011;65863;49.506;10.400;2023-01-01T14:40:14;4.87;;;2.40;;
9422;SDS011;65863;49.506;10.400;2023-01-01T14:43:04;5.87;;;2.50;;
9422;SDS011;65863;49.506;10.400;2023-01-01T14:45:52;6.83;;;2.90;;
9422;SDS011;65863;49.506;10.400;2023-01-01T14:48:37;5.07;;;2.37;;
9422;SDS011;65863;49.506;10.400;2023-01-01T14:51:26;6.57;;;2.43;;
9422;SDS011;65863;49.506;10.400;2023-01-01T14:54:17;6.53;;;2.80;;
9422;SDS011;65863;49.506;10.400;2023-01-01T14:57:08;3.17;;;2.50;;
9422;SDS011;65863;49.506;10.400;2023-01-01T14:59:54;5.00;;;2.13;;
9422;SDS011;65863;49.506;10.400;2023-01-01T15:02:39;5.47;;;2.30;;
9422;SDS011;65863;49.506;10.400;2023-01-01T15:05:30;6.60;;;2.60;;
9422;SDS011;65863;49.506;10.400;2023-01-01T15:08:17;5.53;;;2.13;;
9422;SDS011;65863;49.506;10.400;2023-01-01T15:11:03;3.90;;;2.00;;
9422;SDS011;65863;49.506;10.400;2023-01-01T15:13:58;3.50;;;2.27;;
9422;SDS011;65863;49.506;10.400;2023-01-01T15:16:43;5.43;;;3.07;;
9422;SDS011;65863;49.506;10.400;2023-01-01T15:19:43;10.50;;;4.20;;
9422;SDS011;65863;49.506;10.400;2023-01-01T15:22:29;8.07;;;4.00;;
9422;SDS011;65863;49.506;10.400;2023-01-01T15:25:18;4.10;;;2.33;;
9422;SDS011;65863;49.506;10.400;2023-01-01T15:28:03;3.47;;;2.03;;
9422;SDS011;65863;49.506;10.400;2023-01-01T15:30:51;5.07;;;2.50;;
9422;SDS011;65863;49.506;10.400;2023-01-01T15:33:37;3.67;;;2.30;;
9422;SDS011;65863;49.506;10.400;2023-01-01T15:36:22;9.13;;;2.30;;
9422;SDS011;65863;49.506;10.400;2023-01-01T15:39:10;5.80;;;2.70;;
9422;SDS011;65863;49.506;10.400;2023-01-01T15:41:55;6.13;;;2.10;;
9422;SDS011;65863;49.506;10.400;2023-01-01T15:44:39;5.60;;;2.07;;
9422;SDS011;65863;49.506;10.400;2023-01-01T15:47:24;6.07;;;3.20;;
9422;SDS011;65863;49.506;10.400;2023-01-01T15:50:10;5.83;;;2.30;;
9422;SDS011;65863;49.506;10.400;2023-01-01T15:53:10;9.20;;;2.97;;
9422;SDS011;65863;49.506;10.400;2023-01-01T15:56:08;5.03;;;2.47;;
9422;SDS011;65863;49.506;10.400;2023-01-01T15:58:58;8.93;;;2.63;;
9422;SDS011;65863;49.506;10.400;2023-01-01T16:01:48;6.17;;;1.80;;
9422;SDS011;65863;49.506;10.400;2023-01-01T16:04:32;4.93;;;2.23;;
9422;SDS011;65863;49.506;10.400;2023-01-01T16:07:20;3.37;;;2.07;;
9422;SDS011;65863;49.506;10.400;2023-01-01T16:10:11;3.37;;;1.90;;
9422;SDS011;65863;49.506;10.400;2023-01-01T16:12:57;8.63;;;2.60;;
9422;SDS011;65863;49.506;10.400;2023-01-01T16:15:57;5.00;;;2.30;;
9422;SDS011;65863;49.506;10.400;2023-01-01T16:18:43;6.70;;;2.73;;
9422;SDS011;65863;49.506;10.400;2023-01-01T16:21:28;6.73;;;3.00;;
9422;SDS011;65863;49.506;10.400;2023-01-01T16:24:16;6.87;;;2.40;;
9422;SDS011;65863;49.506;10.400;2023-01-01T16:27:01;7.23;;;2.63;;
9422;SDS011;65863;49.506;10.400;2023-01-01T16:29:46;5.00;;;2.50;;
9422;SDS011;65863;49.506;10.400;2023-01-01T16:32:30;5.77;;;2.40;;
9422;SDS011;65863;49.506;10.400;2023-01-01T16:35:14;4.93;;;2.90;;
9422;SDS011;65863;49.506;10.400;2023-01-01T16:37:59;5.37;;;2.30;;
9422;SDS011;65863;49.506;10.400;2023-01-01T16:40:43;3.60;;;2.13;;
9422;SDS011;65863;49.506;10.400;2023-01-01T16:43:28;2.73;;;2.07;;
9422;SDS011;65863;49.506;10.400;2023-01-01T16:46:13;4.23;;;2.53;;
9422;SDS011;65863;49.506;10.400;2023-01-01T16:48:57;3.83;;;2.80;;
9422;SDS011;65863;49.506;10.400;2023-01-01T16:51:41;6.20;;;2.87;;
9422;SDS011;65863;49.506;10.400;2023-01-01T16:54:26;4.13;;;3.10;;
9422;SDS011;65863;49.506;10.400;2023-01-01T16:57:10;5.33;;;2.73;;
9422;SDS011;65863;49.506;10.400;2023-01-01T16:59:54;6.30;;;2.87;;
9422;SDS011;65863;49.506;10.400;2023-01-01T17:02:39;4.60;;;2.83;;
9422;SDS011;65863;49.506;10.400;2023-01-01T17:05:23;5.97;;;3.90;;
9422;SDS011;65863;49.506;10.400;2023-01-01T17:08:07;6.73;;;3.00;;
9422;SDS011;65863;49.506;10.400;2023-01-01T17:10:59;5.27;;;2.70;;
9422;SDS011;65863;49.506;10.400;2023-01-01T17:13:46;8.83;;;3.10;;
9422;SDS011;65863;49.506;10.400;2023-01-01T17:16:31;5.77;;;3.40;;
9422;SDS011;65863;49.506;10.400;2023-01-01T17:19:15;6.57;;;3.40;;
9422;SDS011;65863;49.506;10.400;2023-01-01T17:21:59;43.77;;;25.47;;
9422;SDS011;65863;49.506;10.400;2023-01-01T17:24:43;73.97;;;40.40;;
9422;SDS011;65863;49.506;10.400;2023-01-01T17:27:28;103.30;;;56.03;;
9422;SDS011;65863;49.506;10.400;2023-01-01T17:30:12;148.77;;;77.50;;
9422;SDS011;65863;49.506;10.400;2023-01-01T17:32:57;69.20;;;40.70;;
9422;SDS011;65863;49.506;10.400;2023-01-01T17:35:42;14.37;;;9.03;;
9422;SDS011;65863;49.506;10.400;2023-01-01T17:38:26;13.07;;;8.83;;
9422;SDS011;65863;49.506;10.400;2023-01-01T17:41:11;20.40;;;11.63;;
9422;SDS011;65863;49.506;10.400;2023-01-01T17:43:56;23.27;;;11.93;;
9422;SDS011;65863;49.506;10.400;2023-01-01T17:46:40;15.73;;;10.30;;
9422;SDS011;65863;49.506;10.400;2023-01-01T17:49:26;13.00;;;7.67;;
9422;SDS011;65863;49.506;10.400;2023-01-01T17:52:10;14.10;;;6.90;;
9422;SDS011;65863;49.506;10.400;2023-01-01T17:54:54;6.17;;;4.07;;
9422;SDS011;65863;49.506;10.400;2023-01-01T17:57:38;11.00;;;4.87;;
9422;SDS011;65863;49.506;10.400;2023-01-01T18:00:22;8.07;;;5.30;;
9422;SDS011;65863;49.506;10.400;2023-01-01T18:03:10;7.33;;;4.87;;
9422;SDS011;65863;49.506;10.400;2023-01-01T18:05:58;6.53;;;4.70;;
9422;SDS011;65863;49.506;10.400;2023-01-01T18:08:42;4.23;;;3.43;;
9422;SDS011;65863;49.506;10.400;2023-01-01T18:11:27;14.13;;;9.50;;
9422;SDS011;65863;49.506;10.400;2023-01-01T18:14:12;16.63;;;9.90;;
9422;SDS011;65863;49.506;10.400;2023-01-01T18:16:56;9.23;;;7.20;;
9422;SDS011;65863;49.506;10.400;2023-01-01T18:19:41;5.23;;;3.97;;
9422;SDS011;65863;49.506;10.400;2023-01-01T18:22:25;5.07;;;3.77;;
9422;SDS011;65863;49.506;10.400;2023-01-01T18:25:09;11.10;;;3.87;;
9422;SDS011;65863;49.506;10.400;2023-01-01T18:27:54;10.40;;;6.43;;
9422;SDS011;65863;49.506;10.400;2023-01-01T18:30:38;6.37;;;4.70;;
9422;SDS011;65863;49.506;10.400;2023-01-01T18:33:22;8.60;;;5.10;;
9422;SDS011;65863;49.506;10.400;2023-01-01T18:36:07;7.47;;;4.47;;
9422;SDS011;65863;49.506;10.400;2023-01-01T18:39:01;7.13;;;3.93;;